Time;durP1;ratioP1;P1;durP2;ratioP2;P2;SDS_P1;SDS_P2;PMS_P1;PMS_P2;Temp;Humidity;BMP_temperature;BMP_pressure;BME280_temperature;BME280_humidity;BME280_pressure;Samples;Min_cycle;Max_cycle;Signal;HPM_P1;HPM_P2
2023/09/13 00:00:27;;;;;;;3.72;3.05;;;23.50;99.90;;;;;;5053728;28;20028;-37
2023/09/13 00:02:52;;;;;;;4.28;3.25;;;23.50;99.90;;;;;;5053680;28;20132;-37
2023/09/13 00:05:18;;;;;;;5.00;3.40;;;23.50;99.90;;;;;;5053689;28;20032;-37
2023/09/13 00:07:44;;;;;;;4.85;3.50;;;23.40;99.90;;;;;;5053662;28;20029;-37
2023/09/13 00:10:09;;;;;;;4.78;3.42;;;23.40;99.90;;;;;;5053436;28;20029;-37
2023/09/13 00:12:35;;;;;;;4.57;3.00;;;23.40;99.90;;;;;;5053542;28;20103;-37
2023/09/13 00:15:01;;;;;;;4.15;3.28;;;23.40;99.90;;;;;;5053304;28;20479;-37
2023/09/13 00:17:27;;;;;;;3.95;3.13;;;23.40;99.90;;;;;;5053425;28;20029;-37
2023/09/13 00:19:56;;;;;;;3.53;3.17;;;23.50;99.90;;;;;;5053368;28;20415;-37
2023/09/13 00:22:22;;;;;;;3.63;3.33;;;23.40;99.90;;;;;;5053884;28;20016;-38
2023/09/13 00:24:47;;;;;;;5.28;3.58;;;23.40;99.90;;;;;;5052569;28;20386;-37
2023/09/13 00:27:13;;;;;;;4.43;3.40;;;23.40;99.90;;;;;;5053247;28;20021;-37
2023/09/13 00:29:39;;;;;;;4.72;3.30;;;23.40;99.90;;;;;;5053294;28;20044;-37
2023/09/13 00:32:05;;;;;;;4.57;3.30;;;23.40;99.90;;;;;;5053178;28;20028;-38
2023/09/13 00:34:31;;;;;;;5.68;3.53;;;23.40;99.90;;;;;;5052941;28;20123;-38
2023/09/13 00:36:57;;;;;;;3.97;3.42;;;23.40;99.90;;;;;;5053118;28;20494;-37
2023/09/13 00:39:23;;;;;;;4.07;3.13;;;23.40;99.90;;;;;;5052891;28;20040;-37
2023/09/13 00:41:48;;;;;;;6.25;3.78;;;23.40;99.90;;;;;;5053248;28;20489;-37
2023/09/13 00:44:14;;;;;;;3.78;3.17;;;23.40;99.90;;;;;;5052765;28;20525;-37
2023/09/13 00:46:40;;;;;;;5.63;3.35;;;23.40;99.90;;;;;;5052924;28;20033;-37
2023/09/13 00:49:06;;;;;;;4.32;3.10;;;23.40;99.90;;;;;;5052754;28;20033;-37
2023/09/13 00:51:32;;;;;;;5.45;3.00;;;23.40;99.90;;;;;;5052837;28;20541;-37
2023/09/13 00:54:01;;;;;;;5.70;3.28;;;23.40;99.90;;;;;;5052642;28;20033;-37
2023/09/13 00:56:28;;;;;;;5.78;3.38;;;23.40;99.90;;;;;;5052520;28;20024;-37
2023/09/13 00:58:54;;;;;;;3.95;3.10;;;23.40;99.90;;;;;;5052954;28;20039;-37
2023/09/13 01:01:21;;;;;;;4.25;3.40;;;23.40;99.90;;;;;;5052599;28;20116;-37
2023/09/13 01:03:47;;;;;;;6.10;3.05;;;23.40;99.90;;;;;;5052511;28;20086;-37
2023/09/13 01:06:14;;;;;;;5.10;3.58;;;23.40;99.90;;;;;;5052333;28;20109;-37
2023/09/13 01:08:41;;;;;;;6.20;3.30;;;23.40;99.90;;;;;;5052466;28;20021;-37
2023/09/13 01:11:08;;;;;;;4.05;3.20;;;23.40;99.90;;;;;;5052439;28;20108;-38
2023/09/13 01:13:34;;;;;;;3.58;2.83;;;23.40;99.90;;;;;;5051057;28;20486;-37
2023/09/13 01:16:20;;;;;;;4.25;3.30;;;23.40;99.90;;;;;;5052155;28;20116;-37
2023/09/13 01:19:12;;;;;;;5.15;3.10;;;23.40;99.90;;;;;;5052175;28;20050;-37
2023/09/13 01:21:40;;;;;;;4.80;3.53;;;23.40;99.90;;;;;;5052469;28;20029;-38
2023/09/13 01:24:25;;;;;;;3.88;3.20;;;23.30;99.90;;;;;;5052034;28;20025;-37
2023/09/13 01:27:25;;;;;;;4.45;3.35;;;23.40;99.90;;;;;;5052198;28;20021;-37
2023/09/13 01:29:52;;;;;;;8.07;3.30;;;23.40;99.90;;;;;;5041551;28;20033;-37
2023/09/13 01:32:17;;;;;;;4.28;3.22;;;23.40;99.90;;;;;;5052027;28;20469;-38
2023/09/13 01:34:43;;;;;;;5.05;3.15;;;23.40;99.90;;;;;;5051787;28;20040;-37
2023/09/13 01:37:09;;;;;;;5.00;3.40;;;23.40;99.90;;;;;;5051389;28;20025;-37
2023/09/13 01:39:35;;;;;;;3.35;2.83;;;23.40;99.90;;;;;;5051760;28;20127;-38
2023/09/13 01:42:06;;;;;;;5.45;2.95;;;23.40;99.90;;;;;;5051755;28;20032;-37
2023/09/13 01:44:34;;;;;;;5.78;3.08;;;23.40;99.90;;;;;;5051543;28;20478;-37
2023/09/13 01:47:03;;;;;;;3.85;3.17;;;23.30;99.90;;;;;;5051788;28;20032;-38
2023/09/13 01:49:29;;;;;;;4.63;3.22;;;23.30;99.90;;;;;;5051506;28;20544;-37
2023/09/13 01:51:55;;;;;;;4.65;2.90;;;23.30;99.90;;;;;;5051747;28;20494;-37
2023/09/13 01:54:21;;;;;;;3.72;3.08;;;23.30;99.90;;;;;;5051428;28;20486;-38
2023/09/13 01:56:46;;;;;;;3.85;3.10;;;23.30;99.90;;;;;;5051622;28;20033;-37
2023/09/13 01:59:12;;;;;;;4.35;3.17;;;23.30;99.90;;;;;;5051534;28;20163;-37
2023/09/13 02:01:37;;;;;;;3.45;2.85;;;23.30;99.90;;;;;;5051577;28;20036;-37
2023/09/13 02:04:05;;;;;;;3.63;3.00;;;23.30;99.90;;;;;;5051372;28;20018;-38
2023/09/13 02:06:31;;;;;;;3.08;2.78;;;23.30;99.90;;;;;;5051354;28;20035;-37
2023/09/13 02:08:57;;;;;;;3.88;3.35;;;23.30;99.90;;;;;;5051256;28;20029;-38
2023/09/13 02:11:24;;;;;;;4.22;2.97;;;23.30;99.90;;;;;;5051429;28;20023;-37
2023/09/13 02:13:50;;;;;;;4.35;3.20;;;23.30;99.90;;;;;;5051386;28;20497;-38
2023/09/13 02:16:20;;;;;;;6.28;3.05;;;23.30;99.90;;;;;;5051234;28;20119;-37
2023/09/13 02:18:46;;;;;;;5.30;3.17;;;23.30;99.90;;;;;;5049960;28;20059;-38
2023/09/13 02:21:11;;;;;;;4.47;3.10;;;23.30;99.90;;;;;;5051696;28;20060;-38
2023/09/13 02:23:38;;;;;;;5.47;2.80;;;23.30;99.90;;;;;;5051188;28;20060;-37
2023/09/13 02:26:03;;;;;;;4.93;3.20;;;23.30;99.90;;;;;;5051232;28;20062;-37
2023/09/13 02:28:29;;;;;;;3.50;2.72;;;23.30;99.90;;;;;;5051266;28;20443;-37
2023/09/13 02:30:55;;;;;;;3.20;2.90;;;23.30;99.90;;;;;;5051244;28;20025;-37
2023/09/13 02:33:20;;;;;;;3.50;2.90;;;23.30;99.90;;;;;;5051163;28;20024;-38
2023/09/13 02:35:49;;;;;;;3.22;2.88;;;23.30;99.90;;;;;;5050880;28;20032;-38
2023/09/13 02:38:15;;;;;;;3.35;2.90;;;23.30;99.90;;;;;;5051315;28;20033;-37
2023/09/13 02:40:41;;;;;;;4.20;2.78;;;23.30;99.90;;;;;;5051103;28;20104;-37
2023/09/13 02:43:06;;;;;;;3.80;2.90;;;23.30;99.90;;;;;;5051180;28;20100;-37
2023/09/13 02:45:32;;;;;;;5.13;2.78;;;23.30;99.90;;;;;;5050796;28;20025;-37
2023/09/13 02:47:58;;;;;;;4.07;2.53;;;23.30;99.90;;;;;;5053108;28;20021;-37
2023/09/13 02:50:23;;;;;;;5.05;2.70;;;23.30;99.90;;;;;;5054888;28;20402;-37
2023/09/13 02:52:49;;;;;;;3.55;2.80;;;23.30;99.90;;;;;;5055214;28;20052;-38
2023/09/13 02:55:14;;;;;;;2.85;2.60;;;23.30;99.90;;;;;;5054869;28;20021;-37
2023/09/13 02:57:40;;;;;;;3.80;3.00;;;23.30;99.90;;;;;;5054995;28;20040;-37
2023/09/13 03:00:06;;;;;;;4.13;3.00;;;23.30;99.90;;;;;;5054940;28;20040;-37
2023/09/13 03:02:32;;;;;;;5.15;2.72;;;23.30;99.90;;;;;;5054936;28;20052;-37
2023/09/13 03:04:57;;;;;;;3.85;2.83;;;23.20;99.90;;;;;;5054425;28;20389;-37
2023/09/13 03:07:23;;;;;;;3.35;2.72;;;23.30;99.90;;;;;;5053420;28;20170;-37
2023/09/13 03:09:54;;;;;;;3.42;2.65;;;23.30;99.90;;;;;;5054669;28;20470;-37
2023/09/13 03:12:20;;;;;;;3.28;2.97;;;23.20;99.90;;;;;;5054732;28;20029;-38
2023/09/13 03:14:45;;;;;;;3.70;2.70;;;23.30;99.90;;;;;;5054453;28;20438;-37
2023/09/13 03:17:12;;;;;;;2.85;2.60;;;23.20;99.90;;;;;;5054578;28;20069;-37
2023/09/13 03:19:38;;;;;;;4.32;2.83;;;23.20;99.90;;;;;;5054344;28;20083;-37
2023/09/13 03:22:04;;;;;;;3.03;2.72;;;23.20;99.90;;;;;;5054481;28;20031;-37
2023/09/13 03:24:30;;;;;;;4.50;2.85;;;23.20;99.90;;;;;;5054197;28;20033;-37
2023/09/13 03:26:56;;;;;;;4.50;3.00;;;23.20;99.90;;;;;;5054695;28;20473;-38
2023/09/13 03:29:21;;;;;;;4.18;2.85;;;23.20;99.90;;;;;;5054328;28;20021;-37
2023/09/13 03:31:47;;;;;;;4.10;2.60;;;23.20;99.90;;;;;;5054316;28;20021;-37
2023/09/13 03:34:13;;;;;;;4.15;2.60;;;23.20;99.90;;;;;;5054065;28;20021;-37
2023/09/13 03:36:39;;;;;;;3.67;2.67;;;23.20;99.90;;;;;;5054481;28;20029;-37
2023/09/13 03:39:05;;;;;;;3.72;2.75;;;23.20;99.90;;;;;;5054107;28;20025;-37
2023/09/13 03:41:31;;;;;;;7.63;2.97;;;23.20;99.90;;;;;;5054130;28;20032;-38
2023/09/13 03:43:56;;;;;;;3.40;2.60;;;23.20;99.90;;;;;;5054199;28;20566;-37
2023/09/13 03:46:22;;;;;;;3.63;2.72;;;23.20;99.90;;;;;;5053724;28;20033;-37
2023/09/13 03:48:47;;;;;;;3.53;2.72;;;23.20;99.90;;;;;;5054349;28;20375;-39
2023/09/13 03:51:14;;;;;;;4.18;2.83;;;23.20;99.90;;;;;;5054046;28;20040;-34
2023/09/13 03:53:39;;;;;;;3.53;2.58;;;23.20;99.90;;;;;;5053965;28;20378;-35
2023/09/13 03:56:05;;;;;;;3.55;2.80;;;23.20;99.90;;;;;;5053772;28;20497;-34
2023/09/13 03:58:34;;;;;;;3.15;2.47;;;23.20;99.90;;;;;;5053565;28;20104;-34
2023/09/13 04:00:59;;;;;;;3.33;2.55;;;23.10;99.90;;;;;;5053719;28;20048;-34
2023/09/13 04:03:26;;;;;;;4.20;2.30;;;23.20;99.90;;;;;;5053701;28;20491;-35
2023/09/13 04:05:52;;;;;;;3.45;2.60;;;23.20;99.90;;;;;;5053520;28;20036;-35
2023/09/13 04:08:18;;;;;;;3.22;2.50;;;23.20;99.90;;;;;;5053864;28;20020;-41
2023/09/13 04:10:43;;;;;;;3.05;2.28;;;23.10;99.90;;;;;;5053984;28;20489;-35
2023/09/13 04:13:09;;;;;;;3.03;2.72;;;23.20;99.90;;;;;;5053691;28;20028;-34
2023/09/13 04:15:35;;;;;;;5.57;2.45;;;23.10;99.90;;;;;;5053460;28;20466;-36
2023/09/13 04:18:01;;;;;;;4.35;2.50;;;23.10;99.90;;;;;;5053412;28;20051;-37
2023/09/13 04:20:26;;;;;;;3.38;2.70;;;23.10;99.90;;;;;;5053305;28;20024;-37
2023/09/13 04:22:52;;;;;;;3.60;2.72;;;23.20;99.90;;;;;;5053387;28;20368;-34
2023/09/13 04:25:18;;;;;;;2.95;2.33;;;23.20;99.90;;;;;;5053101;28;20079;-34
2023/09/13 04:27:44;;;;;;;3.50;2.80;;;23.10;99.90;;;;;;5053349;28;20103;-35
2023/09/13 04:30:11;;;;;;;4.72;2.83;;;23.10;99.90;;;;;;5053260;28;20028;-34
2023/09/13 04:32:36;;;;;;;2.90;2.40;;;23.10;99.90;;;;;;5053155;28;20417;-34
2023/09/13 04:35:02;;;;;;;3.95;2.90;;;23.10;99.90;;;;;;5052914;28;20100;-35
2023/09/13 04:37:28;;;;;;;3.28;2.55;;;23.10;99.90;;;;;;5053188;28;20025;-35
2023/09/13 04:39:54;;;;;;;3.22;2.42;;;23.10;99.90;;;;;;5053058;28;20349;-34
2023/09/13 04:42:19;;;;;;;4.00;2.50;;;23.10;99.90;;;;;;5053103;28;20033;-35
2023/09/13 04:44:45;;;;;;;2.90;2.20;;;23.10;99.90;;;;;;5052775;28;20029;-39
2023/09/13 04:47:11;;;;;;;5.78;2.40;;;23.10;99.90;;;;;;5052915;28;20100;-36
2023/09/13 04:49:36;;;;;;;3.60;2.53;;;23.10;99.90;;;;;;5052776;28;20386;-36
2023/09/13 04:52:03;;;;;;;2.75;2.45;;;23.10;99.90;;;;;;5052965;28;20104;-34
2023/09/13 04:54:29;;;;;;;4.15;2.20;;;23.10;99.90;;;;;;5052753;28;20033;-35
2023/09/13 04:56:54;;;;;;;3.05;2.15;;;23.10;99.90;;;;;;5052805;28;20422;-35
2023/09/13 04:59:24;;;;;;;3.70;2.50;;;23.10;99.90;;;;;;5052667;28;20513;-34
2023/09/13 05:01:49;;;;;;;3.08;2.55;;;23.10;99.90;;;;;;5052703;28;20021;-37
2023/09/13 05:04:15;;;;;;;3.20;2.50;;;23.10;99.90;;;;;;5052409;28;20104;-34
2023/09/13 05:06:40;;;;;;;3.08;2.70;;;23.10;99.90;;;;;;5052567;28;20027;-35
2023/09/13 05:09:06;;;;;;;4.35;2.28;;;23.10;99.90;;;;;;5052611;28;20505;-37
2023/09/13 05:11:32;;;;;;;6.07;2.80;;;23.10;99.90;;;;;;5051484;28;20021;-38
2023/09/13 05:14:14;;;;;;;5.18;2.20;;;23.10;99.90;;;;;;5052586;28;20082;-35
2023/09/13 05:16:39;;;;;;;4.38;2.90;;;23.10;99.90;;;;;;5052658;28;20469;-35
2023/09/13 05:19:05;;;;;;;6.85;3.10;;;23.10;99.90;;;;;;5052337;28;20040;-35
2023/09/13 05:21:31;;;;;;;3.85;2.85;;;22.80;99.90;;;;;;5052364;28;20021;-37
2023/09/13 05:23:56;;;;;;;4.65;3.22;;;22.60;99.90;;;;;;5052317;28;20035;-36
2023/09/13 05:26:22;;;;;;;3.55;2.92;;;22.50;99.90;;;;;;5052439;28;20033;-38
2023/09/13 05:28:48;;;;;;;7.20;3.00;;;22.50;99.90;;;;;;5051986;28;20024;-36
2023/09/13 05:31:14;;;;;;;5.65;2.72;;;22.50;99.90;;;;;;5052150;28;20017;-35
2023/09/13 05:33:39;;;;;;;5.60;2.88;;;22.60;99.90;;;;;;5050806;28;20021;-35
2023/09/13 05:36:12;;;;;;;6.07;2.88;;;22.60;99.90;;;;;;5052073;28;20082;-35
2023/09/13 05:38:38;;;;;;;5.75;3.20;;;22.70;99.90;;;;;;5051974;28;20025;-35
2023/09/13 05:41:11;;;;;;;3.58;3.10;;;22.70;99.90;;;;;;5052047;28;20090;-36
2023/09/13 05:43:41;;;;;;;7.43;3.03;;;22.70;99.90;;;;;;5051951;28;20025;-35
2023/09/13 05:46:08;;;;;;;3.60;2.65;;;22.80;99.90;;;;;;5051675;28;20028;-36
2023/09/13 05:48:34;;;;;;;3.60;2.60;;;22.80;99.90;;;;;;5051693;28;21322;-35
2023/09/13 05:51:01;;;;;;;6.18;3.17;;;22.80;99.90;;;;;;5051956;28;20017;-35
2023/09/13 05:53:27;;;;;;;4.20;2.67;;;22.80;99.90;;;;;;5051650;28;20025;-38
2023/09/13 05:55:53;;;;;;;3.70;2.58;;;22.80;99.90;;;;;;5051999;28;20024;-36
2023/09/13 05:58:19;;;;;;;4.00;2.70;;;22.80;99.90;;;;;;5051531;28;20029;-37
2023/09/13 06:00:50;;;;;;;6.38;2.72;;;22.80;99.90;;;;;;5051635;28;20031;-36
2023/09/13 06:03:19;;;;;;;4.05;2.67;;;22.80;99.90;;;;;;5051586;28;20025;-35
2023/09/13 06:05:50;;;;;;;4.78;2.88;;;22.80;99.90;;;;;;5051671;28;20041;-38
2023/09/13 06:08:17;;;;;;;3.05;2.60;;;22.80;99.90;;;;;;5051506;28;20032;-35
2023/09/13 06:10:42;;;;;;;4.22;2.78;;;22.90;99.90;;;;;;5051385;28;20027;-35
2023/09/13 06:13:08;;;;;;;5.32;2.55;;;22.80;99.90;;;;;;5051561;28;20024;-35
2023/09/13 06:15:33;;;;;;;3.20;2.58;;;22.80;99.90;;;;;;5051273;28;20032;-37
2023/09/13 06:17:59;;;;;;;4.75;2.30;;;22.80;99.90;;;;;;5051485;28;20078;-35
2023/09/13 06:20:25;;;;;;;4.65;2.67;;;22.90;99.90;;;;;;5051932;28;20091;-35
2023/09/13 06:22:50;;;;;;;3.42;2.40;;;22.90;99.90;;;;;;5051671;28;20025;-39
2023/09/13 06:25:17;;;;;;;5.25;2.60;;;22.90;99.90;;;;;;5051791;28;20033;-40
2023/09/13 06:27:45;;;;;;;4.60;2.83;;;22.90;99.90;;;;;;5051228;28;20421;-38
2023/09/13 06:30:13;;;;;;;3.22;2.40;;;22.90;99.90;;;;;;5051160;28;20104;-38
2023/09/13 06:32:39;;;;;;;4.03;2.95;;;22.90;99.90;;;;;;5051317;28;20074;-38
2023/09/13 06:35:05;;;;;;;3.42;2.30;;;22.90;99.90;;;;;;5050988;28;20025;-38
2023/09/13 06:37:31;;;;;;;2.80;2.47;;;22.90;99.90;;;;;;5051085;28;20056;-38
2023/09/13 06:39:56;;;;;;;3.63;2.72;;;22.90;99.90;;;;;;5051078;28;20060;-38
2023/09/13 06:42:22;;;;;;;5.03;2.80;;;22.90;99.90;;;;;;5051010;28;20084;-38
2023/09/13 06:44:47;;;;;;;3.80;2.58;;;22.90;99.90;;;;;;5050803;28;20078;-38
2023/09/13 06:47:13;;;;;;;4.38;2.50;;;22.90;99.90;;;;;;5051094;28;20466;-38
2023/09/13 06:49:38;;;;;;;2.45;2.20;;;22.90;99.90;;;;;;5050841;28;20036;-38
2023/09/13 06:52:04;;;;;;;4.00;2.67;;;22.90;99.90;;;;;;5050918;28;20029;-38
2023/09/13 06:54:30;;;;;;;4.65;2.47;;;22.90;99.90;;;;;;5050835;28;20033;-38
2023/09/13 06:56:55;;;;;;;2.67;2.45;;;22.90;99.90;;;;;;5051117;28;20052;-40
2023/09/13 06:59:21;;;;;;;3.97;2.60;;;22.90;99.90;;;;;;5050921;28;20104;-38
2023/09/13 07:01:47;;;;;;;3.85;2.47;;;22.90;99.90;;;;;;5050953;28;20021;-38
2023/09/13 07:04:13;;;;;;;2.63;2.35;;;22.90;99.90;;;;;;5050694;28;20071;-38
2023/09/13 07:06:39;;;;;;;5.85;2.60;;;22.90;99.90;;;;;;5050683;28;20075;-38
2023/09/13 07:09:05;;;;;;;3.70;2.35;;;22.90;99.90;;;;;;5050764;28;20473;-38
2023/09/13 07:11:31;;;;;;;3.00;2.40;;;22.90;99.90;;;;;;5049828;28;20032;-37
2023/09/13 07:13:58;;;;;;;6.00;2.65;;;22.90;99.90;;;;;;5050820;28;20485;-38
2023/09/13 07:16:23;;;;;;;2.70;2.35;;;22.90;99.90;;;;;;5050609;28;20037;-38
2023/09/13 07:18:49;;;;;;;6.80;3.00;;;22.90;99.90;;;;;;5050685;28;20039;-36
2023/09/13 07:21:15;;;;;;;9.52;4.75;;;22.90;99.90;;;;;;5050634;28;20480;-39
2023/09/13 07:23:40;;;;;;;7.75;5.28;;;22.80;99.90;;;;;;5050665;28;20021;-35
2023/09/13 07:26:06;;;;;;;6.80;4.95;;;22.70;99.90;;;;;;5050449;28;20025;-35
2023/09/13 07:28:32;;;;;;;10.90;5.88;;;22.50;99.90;;;;;;5050670;28;20162;-37
2023/09/13 07:30:57;;;;;;;10.32;6.30;;;22.30;99.90;;;;;;5050647;28;20024;-38
2023/09/13 07:33:23;;;;;;;12.25;5.90;;;22.10;99.90;;;;;;5050684;28;20021;-35
2023/09/13 07:35:48;;;;;;;8.35;5.70;;;22.00;99.90;;;;;;5053426;28;20025;-35
2023/09/13 07:38:14;;;;;;;8.82;5.80;;;21.90;99.90;;;;;;5054125;28;20045;-36
2023/09/13 07:40:40;;;;;;;9.98;5.75;;;21.80;99.90;;;;;;5054199;28;20108;-38
2023/09/13 07:43:07;;;;;;;11.88;5.80;;;21.70;99.90;;;;;;5054241;28;20032;-39
2023/09/13 07:45:34;;;;;;;7.25;5.28;;;21.60;99.90;;;;;;5053906;28;20032;-41
2023/09/13 07:48:00;;;;;;;9.43;5.47;;;21.50;99.90;;;;;;5054211;28;20055;-42
2023/09/13 07:50:38;;;;;;;8.63;5.18;;;21.60;99.90;;;;;;5053810;28;20040;-39
2023/09/13 07:53:04;;;;;;;9.75;5.18;;;21.60;99.90;;;;;;5054034;28;20021;-39
2023/09/13 07:55:30;;;;;;;6.78;4.55;;;21.70;99.90;;;;;;5052387;28;20482;-41
2023/09/13 07:57:55;;;;;;;6.40;4.82;;;21.80;99.90;;;;;;5053931;28;20033;-41
2023/09/13 08:00:21;;;;;;;8.32;4.70;;;21.90;99.90;;;;;;5052479;28;20116;-41
2023/09/13 08:02:48;;;;;;;7.18;4.80;;;22.00;99.90;;;;;;5053768;28;20492;-40
2023/09/13 08:05:15;;;;;;;7.15;4.53;;;22.00;99.90;;;;;;5053514;28;20049;-41
2023/09/13 08:07:41;;;;;;;5.53;4.47;;;22.00;99.90;;;;;;5053676;28;20023;-40
2023/09/13 08:10:07;;;;;;;7.47;4.45;;;22.10;99.90;;;;;;5053664;28;20445;-39
2023/09/13 08:12:32;;;;;;;6.30;4.53;;;22.10;99.90;;;;;;5053667;28;20050;-39
2023/09/13 08:14:58;;;;;;;7.10;4.60;;;22.10;99.90;;;;;;5053305;28;20021;-40
2023/09/13 08:17:23;;;;;;;6.78;4.22;;;22.20;99.90;;;;;;5053564;28;20025;-41
2023/09/13 08:19:49;;;;;;;5.65;4.30;;;22.20;99.90;;;;;;5053348;28;20040;-40
2023/09/13 08:22:15;;;;;;;6.93;4.30;;;22.20;99.90;;;;;;5053462;28;20029;-40
2023/09/13 08:24:41;;;;;;;4.85;4.10;;;22.30;99.90;;;;;;5053119;28;20475;-40
2023/09/13 08:27:06;;;;;;;5.30;3.97;;;22.30;99.90;;;;;;5053409;28;20112;-43
2023/09/13 08:29:33;;;;;;;7.35;4.45;;;22.30;99.90;;;;;;5053618;28;20056;-42
2023/09/13 08:31:59;;;;;;;5.40;3.80;;;22.30;99.90;;;;;;5053239;28;20029;-40
2023/09/13 08:34:25;;;;;;;5.80;4.47;;;22.30;99.90;;;;;;5052942;28;20037;-40
2023/09/13 08:36:53;;;;;;;5.65;3.80;;;22.40;99.90;;;;;;5053197;28;20028;-42
2023/09/13 08:39:19;;;;;;;4.72;3.80;;;22.40;99.90;;;;;;5053283;28;20071;-39
2023/09/13 08:41:50;;;;;;;7.45;4.15;;;22.40;99.90;;;;;;5053120;28;20029;-38
2023/09/13 08:44:20;;;;;;;4.20;3.75;;;22.40;99.90;;;;;;5052742;28;20021;-41
2023/09/13 08:46:58;;;;;;;4.22;3.50;;;22.40;99.90;;;;;;5052681;28;20355;-41
2023/09/13 08:49:24;;;;;;;3.88;2.58;;;22.40;99.90;;;;;;5053009;28;20025;-40
2023/09/13 08:51:52;;;;;;;4.35;2.47;;;22.30;99.90;;;;;;5052819;28;20025;-42
2023/09/13 08:54:18;;;;;;;4.00;2.60;;;22.10;99.90;;;;;;5052611;28;20025;-40
2023/09/13 08:56:45;;;;;;;3.30;2.40;;;22.10;99.90;;;;;;5052762;28;20028;-40
2023/09/13 08:59:12;;;;;;;3.03;2.35;;;22.20;99.90;;;;;;5052477;28;20425;-42
2023/09/13 09:01:40;;;;;;;4.25;2.50;;;22.20;99.90;;;;;;5052652;28;20109;-41
2023/09/13 09:04:06;;;;;;;5.15;2.42;;;22.30;99.90;;;;;;5052729;28;20055;-39
2023/09/13 09:06:32;;;;;;;3.17;2.40;;;22.30;99.90;;;;;;5052373;28;20071;-45
2023/09/13 09:08:59;;;;;;;5.05;2.58;;;22.30;99.90;;;;;;5051214;28;20025;-41
2023/09/13 09:11:27;;;;;;;4.72;2.38;;;22.40;99.90;;;;;;5052599;28;20155;-41
2023/09/13 09:13:57;;;;;;;4.60;2.50;;;22.40;99.90;;;;;;5052366;28;20051;-40
2023/09/13 09:16:26;;;;;;;3.30;2.40;;;22.40;99.90;;;;;;5052232;28;20470;-41
2023/09/13 09:18:54;;;;;;;5.20;2.60;;;22.50;99.90;;;;;;5052304;28;20033;-42
2023/09/13 09:21:19;;;;;;;3.72;2.30;;;22.50;99.90;;;;;;5052315;28;20128;-43
2023/09/13 09:23:45;;;;;;;3.72;2.17;;;22.50;99.90;;;;;;5052269;28;20090;-44
2023/09/13 09:26:11;;;;;;;3.70;2.35;;;22.60;99.90;;;;;;5051841;28;20109;-40
2023/09/13 09:28:37;;;;;;;3.35;2.50;;;22.60;99.90;;;;;;5050632;28;20028;-45
2023/09/13 09:31:04;;;;;;;3.47;2.58;;;22.60;99.90;;;;;;5052143;28;20021;-44
2023/09/13 09:33:31;;;;;;;3.85;2.13;;;22.60;99.90;;;;;;5052064;28;20021;-44
2023/09/13 09:35:58;;;;;;;2.63;2.10;;;22.60;99.90;;;;;;5051842;28;20059;-42
2023/09/13 09:38:27;;;;;;;3.88;2.30;;;22.60;99.90;;;;;;5052013;28;20397;-44
2023/09/13 09:41:03;;;;;;;2.50;2.20;;;22.70;99.90;;;;;;5051796;28;20037;-43
2023/09/13 09:43:30;;;;;;;5.00;2.17;;;22.70;99.90;;;;;;5052124;28;20533;-39
2023/09/13 09:45:56;;;;;;;2.67;2.38;;;22.70;99.90;;;;;;5051653;28;20036;-41
2023/09/13 09:48:22;;;;;;;3.90;2.15;;;22.60;99.90;;;;;;5051589;28;20124;-40
2023/09/13 09:50:50;;;;;;;2.55;2.13;;;22.60;99.90;;;;;;5052576;28;20533;-38
2023/09/13 09:53:17;;;;;;;2.45;2.08;;;22.60;99.90;;;;;;5051912;28;20112;-37
2023/09/13 09:55:47;;;;;;;7.28;2.25;;;22.70;99.90;;;;;;5051786;28;20028;-37
2023/09/13 09:58:13;;;;;;;3.10;2.20;;;22.70;99.90;;;;;;5051325;28;20051;-38
2023/09/13 10:00:50;;;;;;;2.63;2.22;;;22.70;99.90;;;;;;5051784;28;20025;-39
2023/09/13 10:03:19;;;;;;;3.40;2.10;;;22.70;99.90;;;;;;5051834;28;20021;-37
2023/09/13 10:05:59;;;;;;;2.25;1.98;;;22.70;99.90;;;;;;5051775;28;20021;-38
2023/09/13 10:08:45;;;;;;;2.25;2.05;;;22.60;99.90;;;;;;5051960;28;20032;-39
2023/09/13 10:11:16;;;;;;;3.50;2.33;;;22.60;99.90;;;;;;5052229;28;20386;-37
2023/09/13 10:13:46;;;;;;;2.35;1.98;;;22.70;99.90;;;;;;5051957;28;20021;-38
2023/09/13 10:16:14;;;;;;;3.97;2.25;;;22.70;99.90;;;;;;5051723;28;20025;-38
2023/09/13 10:18:48;;;;;;;2.17;1.98;;;22.70;99.90;;;;;;5051800;28;20028;-37
2023/09/13 10:21:17;;;;;;;2.47;2.13;;;22.70;99.90;;;;;;5052075;28;20036;-39
2023/09/13 10:23:45;;;;;;;4.68;2.40;;;22.70;99.90;;;;;;5051957;28;20556;-38
2023/09/13 10:26:15;;;;;;;4.63;2.10;;;22.70;99.90;;;;;;5051243;28;20033;-38
2023/09/13 10:28:54;;;;;;;2.20;2.00;;;22.70;99.90;;;;;;5051272;28;20532;-37
2023/09/13 10:31:34;;;;;;;4.68;2.00;;;22.70;99.90;;;;;;5051223;28;20025;-37
2023/09/13 10:34:07;;;;;;;2.50;2.10;;;22.70;99.90;;;;;;5051116;28;20017;-38
2023/09/13 10:36:36;;;;;;;3.85;1.95;;;22.70;99.90;;;;;;5051357;28;20086;-38
2023/09/13 10:39:15;;;;;;;2.70;2.28;;;22.80;99.90;;;;;;5051342;28;20495;-37
2023/09/13 10:42:07;;;;;;;3.08;1.88;;;22.80;99.90;;;;;;5051416;28;20033;-37
2023/09/13 10:44:35;;;;;;;2.15;1.85;;;22.80;99.90;;;;;;5049673;28;20444;-37
2023/09/13 10:47:05;;;;;;;2.47;2.00;;;22.80;99.90;;;;;;5051506;28;20054;-37
2023/09/13 10:49:31;;;;;;;2.85;1.83;;;22.80;99.90;;;;;;5051262;28;20059;-38
2023/09/13 10:51:58;;;;;;;2.40;2.00;;;22.80;99.90;;;;;;5051347;28;20049;-37
2023/09/13 10:54:25;;;;;;;2.25;2.05;;;22.80;99.90;;;;;;5051135;28;20021;-39
2023/09/13 10:56:52;;;;;;;4.10;1.90;;;22.80;99.90;;;;;;5051232;28;20508;-37
2023/09/13 10:59:20;;;;;;;2.45;1.88;;;22.80;99.90;;;;;;5051113;28;20283;-37
2023/09/13 11:01:46;;;;;;;3.60;2.28;;;22.80;99.90;;;;;;5051651;28;20106;-37
2023/09/13 11:04:17;;;;;;;3.75;2.20;;;22.80;99.90;;;;;;5050971;28;20508;-38
2023/09/13 11:06:43;;;;;;;2.70;2.10;;;22.80;99.90;;;;;;5051040;28;20025;-37
2023/09/13 11:09:14;;;;;;;3.38;1.95;;;22.80;99.90;;;;;;5051867;28;20017;-38
2023/09/13 11:11:50;;;;;;;2.22;1.90;;;22.80;99.90;;;;;;5055001;28;20021;-37
2023/09/13 11:14:19;;;;;;;3.72;2.20;;;22.80;99.90;;;;;;5055130;28;20477;-37
2023/09/13 11:16:48;;;;;;;2.50;2.10;;;22.80;99.90;;;;;;5054708;28;20235;-38
2023/09/13 11:19:17;;;;;;;2.17;1.80;;;22.80;99.90;;;;;;5054734;28;20029;-37
2023/09/13 11:21:50;;;;;;;2.28;2.08;;;22.80;99.90;;;;;;5054761;28;20025;-37
2023/09/13 11:24:35;;;;;;;2.25;2.00;;;22.80;99.90;;;;;;5054471;28;20031;-37
2023/09/13 11:27:10;;;;;;;2.50;2.10;;;22.80;99.90;;;;;;5054490;28;20029;-37
2023/09/13 11:29:52;;;;;;;2.95;2.30;;;22.80;99.90;;;;;;5054467;28;20024;-38
2023/09/13 11:32:20;;;;;;;4.00;2.50;;;22.70;99.90;;;;;;5053568;28;20044;-38
2023/09/13 11:34:57;;;;;;;4.10;2.55;;;22.20;99.90;;;;;;5054203;28;20108;-38
2023/09/13 11:37:26;;;;;;;4.55;2.55;;;22.10;99.90;;;;;;5055005;28;20167;-38
2023/09/13 11:39:53;;;;;;;6.85;2.80;;;22.10;99.90;;;;;;5054461;28;20025;-38
2023/09/13 11:42:28;;;;;;;4.22;2.53;;;22.10;99.90;;;;;;5054897;28;20029;-37
2023/09/13 11:44:54;;;;;;;4.47;2.58;;;22.10;99.90;;;;;;5054249;28;20486;-38
2023/09/13 11:47:21;;;;;;;3.75;2.33;;;22.20;99.90;;;;;;5054675;28;20056;-38
2023/09/13 11:49:47;;;;;;;3.70;2.60;;;22.30;99.90;;;;;;5053215;28;20028;-38
2023/09/13 11:52:13;;;;;;;5.93;2.38;;;22.30;99.90;;;;;;5054451;28;20104;-39
2023/09/13 11:54:53;;;;;;;3.90;2.15;;;22.40;99.90;;;;;;5054507;28;20052;-38
2023/09/13 11:57:21;;;;;;;2.58;2.25;;;22.40;99.90;;;;;;5054466;28;20565;-37
2023/09/13 11:59:52;;;;;;;3.75;2.35;;;22.40;99.90;;;;;;5054433;28;20025;-38
2023/09/13 12:02:18;;;;;;;4.93;2.38;;;22.50;99.90;;;;;;5054524;28;20268;-37
2023/09/13 12:04:43;;;;;;;2.95;2.47;;;22.50;99.90;;;;;;5053932;28;20039;-38
2023/09/13 12:07:10;;;;;;;2.25;2.00;;;22.50;99.90;;;;;;5054232;28;20041;-38
2023/09/13 12:09:36;;;;;;;2.55;2.20;;;22.50;99.90;;;;;;5054196;28;20033;-39
2023/09/13 12:12:02;;;;;;;3.47;2.28;;;22.50;99.90;;;;;;5054191;28;20130;-38
2023/09/13 12:14:30;;;;;;;2.53;2.10;;;22.60;99.90;;;;;;5053524;28;20013;-37
2023/09/13 12:16:57;;;;;;;2.92;2.45;;;22.60;99.90;;;;;;5054024;28;20071;-37
2023/09/13 12:19:24;;;;;;;3.60;2.30;;;22.60;99.90;;;;;;5053639;28;20096;-38
2023/09/13 12:21:49;;;;;;;4.28;2.10;;;22.60;99.90;;;;;;5053661;28;20032;-38
2023/09/13 12:24:24;;;;;;;5.55;2.20;;;22.60;99.90;;;;;;5053801;28;20033;-37
2023/09/13 12:26:53;;;;;;;3.58;2.20;;;22.60;99.90;;;;;;5053960;28;20040;-38
2023/09/13 12:29:21;;;;;;;2.10;1.90;;;22.60;99.90;;;;;;5053676;28;20021;-37
2023/09/13 12:31:49;;;;;;;4.00;2.00;;;22.70;99.90;;;;;;5053222;28;20039;-38
2023/09/13 12:34:15;;;;;;;2.47;2.00;;;22.70;99.90;;;;;;5053050;28;20021;-37
2023/09/13 12:36:41;;;;;;;3.15;2.10;;;22.60;99.90;;;;;;5053297;28;20035;-38
2023/09/13 12:39:14;;;;;;;3.00;2.25;;;22.70;99.90;;;;;;5053003;28;20474;-38
2023/09/13 12:41:40;;;;;;;3.42;2.10;;;22.70;99.90;;;;;;5053144;28;20524;-37
2023/09/13 12:44:06;;;;;;;3.90;2.22;;;22.60;99.90;;;;;;5052928;28;20036;-38
2023/09/13 12:46:33;;;;;;;3.35;1.88;;;22.70;99.90;;;;;;5052759;28;20040;-38